createdAt,value
2017-06-05T00:00:40.540Z,63.50
2017-06-05T00:03:12.986Z,64.10
2017-06-05T00:05:45.454Z,64.40
2017-06-05T00:08:17.643Z,64.60
2017-06-05T00:10:50.810Z,65.30
2017-06-05T00:13:24.127Z,65.10
2017-06-05T00:15:56.161Z,65.20
2017-06-05T00:18:28.301Z,64.90
2017-06-05T00:21:01.159Z,64.70
2017-06-05T00:23:33.270Z,64.50
2017-06-05T00:26:05.383Z,64.00
2017-06-05T00:28:37.524Z,63.70
2017-06-05T00:31:09.847Z,63.50
2017-06-05T00:33:42.900Z,64.20
2017-06-05T00:36:15.758Z,64.10
2017-06-05T00:38:47.879Z,64.50
2017-06-05T00:41:20.099Z,64.40
2017-06-05T00:43:52.298Z,64.60
2017-06-05T00:46:24.685Z,64.70
2017-06-05T00:48:57.095Z,64.70
2017-06-05T00:51:29.384Z,64.90
2017-06-05T00:54:01.504Z,65.00
2017-06-05T00:56:33.591Z,65.00
2017-06-05T01:01:39.377Z,65.00
2017-06-05T01:04:11.585Z,65.00
2017-06-05T01:06:43.827Z,65.10
2017-06-05T01:09:15.374Z,65.30
2017-06-05T01:11:47.484Z,65.70
2017-06-05T01:14:20.018Z,65.90
2017-06-05T01:16:52.010Z,66.40
2017-06-05T01:19:24.262Z,66.50
2017-06-05T01:21:56.591Z,66.80
2017-06-05T01:24:29.783Z,67.20
2017-06-05T01:27:01.956Z,67.20
2017-06-05T01:29:36.079Z,67.70
2017-06-05T01:32:08.690Z,67.80
2017-06-05T01:34:42.245Z,68.10
2017-06-05T01:37:14.431Z,68.00
2017-06-05T01:39:47.706Z,68.40
2017-06-05T01:42:21.829Z,68.60
2017-06-05T01:44:54.905Z,68.90
2017-06-05T01:47:27.207Z,68.70
2017-06-05T01:50:00.147Z,69.20
2017-06-05T01:52:32.444Z,69.00
2017-06-05T01:55:05.510Z,69.70
2017-06-05T01:57:40.306Z,69.90
2017-06-05T02:00:13.293Z,70.10
2017-06-05T02:02:49.681Z,69.90
2017-06-05T02:05:21.864Z,70.00
2017-06-05T02:07:54.030Z,70.20
2017-06-05T02:10:26.309Z,70.30
2017-06-05T02:12:57.995Z,70.40
2017-06-05T02:15:32.334Z,70.70
2017-06-05T02:18:04.297Z,70.60
2017-06-05T02:20:32.107Z,70.70
2017-06-05T02:22:59.647Z,70.80
2017-06-05T02:25:27.186Z,70.90
2017-06-05T02:27:55.193Z,71.80
2017-06-05T02:30:22.730Z,71.10
2017-06-05T02:32:50.265Z,71.10
2017-06-05T02:35:17.845Z,71.20
2017-06-05T02:37:45.386Z,71.20
2017-06-05T02:40:13.302Z,70.80
2017-06-05T02:42:40.838Z,71.30
2017-06-05T02:45:08.373Z,71.40
2017-06-05T02:47:36.393Z,71.40
2017-06-05T02:50:03.936Z,71.50
2017-06-05T02:52:31.530Z,71.50
2017-06-05T02:54:59.076Z,71.60
2017-06-05T02:57:26.773Z,71.80
2017-06-05T02:59:55.154Z,72.00
2017-06-05T03:02:22.709Z,71.90
2017-06-05T03:04:51.014Z,72.10
2017-06-05T03:07:18.589Z,72.10
2017-06-05T03:09:46.129Z,72.10
2017-06-05T03:12:13.858Z,72.30
2017-06-05T03:14:41.415Z,72.40
2017-06-05T03:17:09.434Z,72.40
2017-06-05T03:19:37.441Z,72.40
2017-06-05T03:22:04.984Z,72.20
2017-06-05T03:24:32.521Z,72.30
2017-06-05T03:27:01.982Z,72.30
2017-06-05T03:29:29.526Z,72.50
2017-06-05T03:31:57.070Z,72.50
2017-06-05T03:34:24.653Z,72.40
2017-06-05T03:36:52.195Z,72.40
2017-06-05T03:39:20.693Z,72.50
2017-06-05T03:41:48.233Z,72.60
2017-06-05T03:44:15.774Z,72.60
2017-06-05T03:46:43.674Z,72.60
2017-06-05T03:49:11.220Z,72.60
2017-06-05T03:51:38.762Z,72.60
2017-06-05T03:54:06.399Z,72.60
2017-06-05T03:56:35.152Z,72.80
2017-06-05T03:59:02.805Z,72.80
2017-06-05T04:01:30.350Z,72.80
2017-06-05T04:03:57.931Z,72.80
2017-06-05T04:06:25.478Z,72.80
2017-06-05T04:08:53.103Z,72.80
2017-06-05T04:11:20.650Z,72.70
2017-06-05T04:13:48.959Z,72.80
2017-06-05T04:16:16.602Z,72.70
2017-06-05T04:18:44.143Z,72.70
2017-06-05T04:21:12.490Z,72.60
2017-06-05T04:23:40.033Z,72.40
2017-06-05T04:26:07.645Z,72.50
2017-06-05T04:28:35.953Z,72.50
2017-06-05T04:31:03.494Z,72.50
2017-06-05T04:33:31.202Z,72.60
2017-06-05T04:35:58.743Z,72.70
2017-06-05T04:38:26.391Z,72.80
2017-06-05T04:40:55.378Z,72.60
2017-06-05T04:43:22.921Z,72.60
2017-06-05T04:45:51.265Z,72.50
2017-06-05T04:48:18.802Z,72.50
2017-06-05T04:50:46.794Z,72.40
2017-06-05T04:53:14.331Z,72.40
2017-06-05T04:55:41.911Z,72.40
2017-06-05T04:58:09.558Z,72.40
2017-06-05T05:00:37.097Z,72.40
2017-06-05T05:03:04.637Z,72.30
2017-06-05T05:05:33.401Z,72.50
2017-06-05T05:08:00.941Z,72.40
2017-06-05T05:10:28.477Z,72.50
2017-06-05T05:12:56.990Z,72.40
2017-06-05T05:15:24.529Z,72.30
2017-06-05T05:17:52.070Z,72.50
2017-06-05T05:20:19.670Z,72.60
2017-06-05T05:22:47.226Z,72.80
2017-06-05T05:25:14.764Z,72.70
2017-06-05T05:27:42.345Z,72.80
2017-06-05T05:30:09.889Z,72.50
2017-06-05T05:32:39.110Z,72.50
2017-06-05T05:35:06.649Z,72.40
2017-06-05T05:37:34.198Z,72.30
2017-06-05T05:40:01.858Z,72.20
2017-06-05T05:42:30.729Z,72.10
2017-06-05T05:44:59.130Z,72.00
2017-06-05T05:47:26.673Z,71.80
2017-06-05T05:49:54.549Z,72.00
2017-06-05T05:52:22.091Z,72.00
2017-06-05T05:54:50.389Z,72.20
2017-06-05T05:57:17.970Z,72.80
2017-06-05T05:59:45.609Z,72.20
2017-06-05T06:02:13.189Z,72.30
2017-06-05T06:04:41.279Z,72.30
2017-06-05T06:07:08.823Z,72.40
2017-06-05T06:09:36.710Z,72.40
2017-06-05T06:12:04.254Z,72.40
2017-06-05T06:14:31.793Z,72.20
2017-06-05T06:16:59.901Z,72.20
2017-06-05T06:19:27.443Z,72.20
2017-06-05T06:21:55.012Z,72.00
2017-06-05T06:24:22.774Z,72.00
2017-06-05T06:26:50.351Z,71.80
2017-06-05T06:29:17.895Z,71.70
2017-06-05T06:31:45.822Z,71.40
2017-06-05T06:34:13.365Z,71.00
2017-06-05T06:36:41.682Z,70.60
2017-06-05T06:39:09.341Z,70.60
2017-06-05T06:41:37.124Z,70.40
2017-06-05T06:44:04.666Z,70.20
2017-06-05T06:46:32.242Z,70.00
2017-06-05T06:48:59.978Z,69.90
2017-06-05T06:51:27.519Z,69.60
2017-06-05T06:53:55.912Z,70.00
2017-06-05T06:56:23.610Z,69.20
2017-06-05T06:58:51.162Z,69.00
2017-06-05T07:01:18.806Z,68.60
2017-06-05T07:03:46.364Z,68.60
2017-06-05T07:06:14.067Z,68.40
2017-06-05T07:08:41.619Z,68.00
2017-06-05T07:11:09.171Z,67.90
2017-06-05T07:13:36.889Z,67.80
2017-06-05T07:16:04.425Z,67.40
2017-06-05T07:18:32.746Z,67.40
2017-06-05T07:21:00.627Z,67.40
2017-06-05T07:23:28.216Z,67.00
2017-06-05T07:25:56.582Z,67.40
2017-06-05T07:28:24.867Z,67.00
2017-06-05T07:30:52.414Z,67.10
2017-06-05T07:33:20.114Z,67.20
2017-06-05T07:35:48.021Z,67.30
2017-06-05T07:38:15.564Z,67.10
2017-06-05T07:40:43.111Z,67.00
2017-06-05T07:43:10.885Z,67.00
2017-06-05T07:45:38.891Z,66.70
2017-06-05T07:48:06.434Z,66.70
2017-06-05T07:50:33.969Z,66.50
2017-06-05T07:53:01.545Z,65.80
2017-06-05T07:55:29.085Z,65.40
2017-06-05T07:57:56.852Z,64.80
2017-06-05T08:00:24.686Z,64.50
2017-06-05T08:02:52.630Z,63.80
2017-06-05T08:05:20.165Z,63.00
2017-06-05T08:07:47.750Z,62.50
2017-06-05T08:10:15.336Z,62.30
2017-06-05T08:12:42.873Z,61.80
2017-06-05T08:15:15.593Z,61.40
2017-06-05T08:17:43.900Z,60.70
2017-06-05T08:20:11.440Z,60.60
2017-06-05T08:22:39.141Z,60.10
2017-06-05T08:25:06.684Z,59.40
2017-06-05T08:27:34.226Z,59.10
2017-06-05T08:30:01.860Z,59.40
2017-06-05T08:32:29.437Z,58.40
2017-06-05T08:34:57.374Z,57.90
2017-06-05T08:37:24.917Z,57.50
2017-06-05T08:39:52.782Z,57.30
2017-06-05T08:42:21.281Z,56.90
2017-06-05T08:44:48.821Z,56.60
2017-06-05T08:47:16.361Z,56.90
2017-06-05T08:49:43.942Z,56.70
2017-06-05T08:52:11.502Z,56.60
2017-06-05T08:54:39.096Z,56.40
2017-06-05T08:57:06.642Z,56.20
2017-06-05T08:59:34.185Z,55.90
2017-06-05T09:02:03.191Z,56.00
2017-06-05T09:04:30.734Z,56.20
2017-06-05T09:07:03.541Z,56.40
2017-06-05T09:09:31.077Z,56.30
2017-06-05T09:11:58.635Z,55.90
2017-06-05T09:14:26.503Z,55.50
2017-06-05T09:16:54.045Z,55.20
2017-06-05T09:19:21.586Z,54.60
2017-06-05T09:21:49.214Z,54.10
2017-06-05T09:24:20.449Z,54.00
2017-06-05T09:26:48.038Z,53.90
2017-06-05T09:29:16.562Z,54.00
2017-06-05T09:31:44.194Z,53.40
2017-06-05T09:34:12.502Z,52.70
2017-06-05T09:36:40.503Z,52.60
2017-06-05T09:39:08.326Z,52.30
2017-06-05T09:41:35.908Z,52.70
2017-06-05T09:44:03.629Z,52.90
2017-06-05T09:46:31.942Z,52.70
2017-06-05T09:48:59.950Z,52.60
2017-06-05T09:51:27.501Z,52.30
2017-06-05T09:53:55.058Z,51.70
2017-06-05T09:56:22.713Z,51.20
2017-06-05T09:58:50.263Z,51.20
2017-06-05T10:01:18.122Z,50.60
2017-06-05T10:03:45.683Z,50.30
2017-06-05T10:06:13.681Z,50.20
2017-06-05T10:08:41.225Z,49.60
2017-06-05T10:11:08.774Z,48.80
2017-06-05T10:13:36.354Z,48.20
2017-06-05T10:16:03.900Z,47.80
2017-06-05T10:18:31.893Z,47.30
2017-06-05T10:20:59.435Z,47.00
2017-06-05T10:23:26.982Z,47.00
2017-06-05T10:25:54.569Z,46.70
2017-06-05T10:28:22.111Z,46.50
2017-06-05T10:30:50.114Z,46.50
2017-06-05T10:33:17.653Z,46.10
2017-06-05T10:35:45.191Z,46.00
2017-06-05T10:38:12.858Z,46.00
2017-06-05T10:40:40.403Z,45.90
2017-06-05T10:43:08.327Z,46.00
2017-06-05T10:45:35.870Z,45.80
2017-06-05T10:48:03.412Z,45.60
2017-06-05T10:50:31.205Z,45.10
2017-06-05T10:52:58.746Z,44.90
2017-06-05T10:55:26.305Z,44.90
2017-06-05T10:57:54.078Z,44.90
2017-06-05T11:00:21.623Z,44.60
2017-06-05T11:02:49.613Z,44.30
2017-06-05T11:05:17.162Z,44.30
2017-06-05T11:07:44.701Z,44.20
2017-06-05T11:10:12.345Z,44.30
2017-06-05T11:12:39.890Z,44.40
2017-06-05T11:15:07.826Z,43.90
2017-06-05T11:17:35.834Z,44.40
2017-06-05T11:20:03.441Z,44.90
2017-06-05T11:22:31.000Z,45.10
2017-06-05T11:24:58.698Z,44.90
2017-06-05T11:27:26.241Z,44.40
2017-06-05T11:29:53.784Z,43.80
2017-06-05T11:32:21.413Z,43.00
2017-06-05T11:34:48.961Z,43.00
2017-06-05T11:37:17.093Z,43.10
2017-06-05T11:39:44.635Z,43.10
2017-06-05T11:42:12.177Z,42.70
2017-06-05T11:44:40.078Z,42.10
2017-06-05T11:47:07.626Z,41.70
2017-06-05T11:49:35.313Z,41.50
2017-06-05T11:52:02.881Z,41.90
2017-06-05T11:54:30.433Z,42.20
2017-06-05T11:56:58.366Z,41.70
2017-06-05T11:59:25.911Z,41.20
2017-06-05T12:01:53.454Z,41.30
2017-06-05T12:04:21.474Z,40.80
2017-06-05T12:06:53.059Z,40.30
2017-06-05T12:09:20.611Z,40.80
2017-06-05T12:11:48.157Z,40.60
2017-06-05T12:14:16.570Z,39.40
2017-06-05T12:16:44.122Z,39.30
2017-06-05T12:19:11.751Z,39.60
2017-06-05T12:21:39.302Z,39.70
2017-06-05T12:24:06.991Z,39.70
2017-06-05T12:26:34.533Z,39.20
2017-06-05T12:29:02.081Z,38.70
2017-06-05T12:31:30.109Z,38.70
2017-06-05T12:33:57.658Z,38.60
2017-06-05T12:36:26.121Z,38.80
2017-06-05T12:38:53.848Z,38.10
2017-06-05T12:41:21.398Z,37.40
2017-06-05T12:43:49.086Z,36.80
2017-06-05T12:46:16.635Z,36.90
2017-06-05T12:48:44.194Z,37.50
2017-06-05T12:51:11.841Z,37.80
2017-06-05T12:53:39.785Z,37.50
2017-06-05T12:56:07.671Z,37.40
2017-06-05T12:58:35.224Z,37.40
2017-06-05T13:01:02.771Z,37.20
2017-06-05T13:03:30.681Z,37.20
2017-06-05T13:05:58.653Z,36.60
2017-06-05T13:08:26.202Z,36.40
2017-06-05T13:10:53.794Z,36.30
2017-06-05T13:13:21.351Z,36.80
2017-06-05T13:15:49.042Z,36.00
2017-06-05T13:18:16.581Z,35.60
2017-06-05T13:20:44.125Z,35.90
2017-06-05T13:23:12.186Z,35.70
2017-06-05T13:25:39.729Z,35.80
2017-06-05T13:28:07.274Z,35.50
2017-06-05T13:30:35.146Z,35.40
2017-06-05T13:33:02.713Z,35.10
2017-06-05T13:35:30.262Z,35.30
2017-06-05T13:38:01.235Z,35.40
2017-06-05T13:40:28.801Z,35.30
2017-06-05T13:42:56.442Z,34.70
2017-06-05T13:45:24.082Z,34.50
2017-06-05T13:47:51.621Z,34.80
2017-06-05T13:50:19.936Z,34.80
2017-06-05T13:52:47.828Z,34.70
2017-06-05T13:55:15.363Z,34.10
2017-06-05T13:57:42.906Z,33.50
2017-06-05T14:00:10.927Z,33.00
2017-06-05T14:02:38.478Z,33.20
2017-06-05T14:05:06.028Z,33.50
2017-06-05T14:07:36.565Z,33.90
2017-06-05T14:10:04.142Z,34.20
2017-06-05T14:12:31.692Z,33.80
2017-06-05T14:14:59.277Z,33.50
2017-06-05T14:17:26.813Z,33.80
2017-06-05T14:19:54.761Z,34.30
2017-06-05T14:22:22.324Z,34.60
2017-06-05T14:24:49.865Z,34.60
2017-06-05T14:27:20.426Z,34.70
2017-06-05T14:29:47.963Z,34.70
2017-06-05T14:32:15.501Z,34.60
2017-06-05T14:34:43.201Z,34.40
2017-06-05T14:37:11.179Z,34.40
2017-06-05T14:39:39.014Z,34.10
2017-06-05T14:42:06.574Z,33.70
2017-06-05T14:44:34.153Z,33.10
2017-06-05T14:47:01.739Z,33.50
2017-06-05T14:49:29.294Z,34.00
2017-06-05T14:51:57.036Z,34.30
2017-06-05T14:54:24.585Z,33.80
2017-06-05T14:56:52.453Z,33.80
2017-06-05T14:59:20.004Z,33.70
2017-06-05T15:01:47.555Z,33.70
2017-06-05T15:04:15.294Z,34.30
2017-06-05T15:06:43.606Z,35.60
2017-06-05T15:09:11.152Z,35.00
2017-06-05T15:11:39.890Z,35.20
2017-06-05T15:14:07.434Z,35.40
2017-06-05T15:16:35.007Z,35.50
2017-06-05T15:19:02.616Z,35.20
2017-06-05T15:21:30.240Z,35.00
2017-06-05T15:23:57.782Z,35.60
2017-06-05T15:26:25.330Z,35.80
2017-06-05T15:28:53.217Z,35.90
2017-06-05T15:31:20.829Z,36.00
2017-06-05T15:33:48.378Z,36.00
2017-06-05T15:36:16.119Z,36.40
2017-06-05T15:38:43.938Z,36.30
2017-06-05T15:41:13.999Z,36.10
2017-06-05T15:43:41.554Z,36.20
2017-06-05T15:46:09.289Z,36.50
2017-06-05T15:48:36.838Z,36.70
2017-06-05T15:51:04.421Z,36.50
2017-06-05T15:53:31.969Z,36.00
2017-06-05T15:55:59.866Z,35.10
2017-06-05T15:58:27.402Z,34.40
2017-06-05T16:00:54.945Z,34.20
2017-06-05T16:03:22.930Z,34.30
2017-06-05T16:05:50.486Z,34.40
2017-06-05T16:08:18.029Z,34.40
2017-06-05T16:10:46.644Z,34.90
2017-06-05T16:13:14.313Z,35.00
2017-06-05T16:15:41.962Z,35.20
2017-06-05T16:18:09.505Z,35.60
2017-06-05T16:20:37.485Z,36.00
2017-06-05T16:23:05.025Z,36.10
2017-06-05T16:25:32.579Z,36.10
2017-06-05T16:28:00.166Z,36.30
2017-06-05T16:30:27.771Z,36.60
2017-06-05T16:32:57.774Z,36.80
2017-06-05T16:35:25.321Z,37.20
2017-06-05T16:37:52.987Z,37.20
2017-06-05T16:40:20.742Z,36.90
2017-06-05T16:42:48.295Z,36.20
2017-06-05T16:45:18.498Z,35.50
2017-06-05T16:47:46.042Z,34.80
2017-06-05T16:50:13.587Z,34.40
2017-06-05T16:52:41.634Z,34.20
2017-06-05T16:55:09.198Z,33.80
2017-06-05T16:57:36.741Z,33.30
2017-06-05T17:00:04.329Z,33.00
2017-06-05T17:02:32.713Z,33.20
2017-06-05T17:05:04.689Z,33.30
2017-06-05T17:07:33.811Z,34.00
2017-06-05T17:10:01.777Z,34.00
2017-06-05T17:12:30.246Z,34.30
2017-06-05T17:14:57.792Z,34.40
2017-06-05T17:17:25.743Z,34.90
2017-06-05T17:19:53.288Z,35.20
2017-06-05T17:22:20.838Z,35.50
2017-06-05T17:24:48.476Z,35.70
2017-06-05T17:27:16.030Z,36.10
2017-06-05T17:29:45.122Z,36.50
2017-06-05T17:32:12.674Z,36.80
2017-06-05T17:34:40.982Z,37.30
2017-06-05T17:37:08.620Z,37.10
2017-06-05T17:39:36.310Z,37.30
2017-06-05T17:42:04.513Z,37.30
2017-06-05T17:44:32.063Z,37.30
2017-06-05T17:46:59.610Z,37.60
2017-06-05T17:49:27.207Z,37.90
2017-06-05T17:51:54.769Z,38.10
2017-06-05T17:54:22.370Z,38.30
2017-06-05T17:56:49.919Z,38.70
2017-06-05T17:59:17.475Z,39.00
2017-06-05T18:01:45.942Z,39.60
2017-06-05T18:04:13.489Z,39.50
2017-06-05T18:06:41.394Z,39.80
2017-06-05T18:09:09.738Z,40.00
2017-06-05T18:11:37.286Z,40.50
2017-06-05T18:14:04.922Z,40.50
2017-06-05T18:16:32.505Z,40.60
2017-06-05T18:19:03.678Z,40.80
2017-06-05T18:21:32.031Z,41.20
2017-06-05T18:23:59.613Z,41.20
2017-06-05T18:26:27.925Z,42.10
2017-06-05T18:28:58.184Z,41.60
2017-06-05T18:34:30.446Z,42.10
2017-06-05T18:39:49.482Z,42.60
2017-06-05T18:42:17.026Z,42.70
2017-06-05T18:44:44.582Z,43.30
2017-06-05T18:47:15.226Z,43.60
2017-06-05T18:49:42.774Z,43.80
2017-06-05T18:52:10.308Z,44.20
2017-06-05T18:54:49.830Z,44.60
2017-06-05T18:57:17.381Z,44.80
2017-06-05T18:59:45.109Z,45.10
2017-06-05T19:02:12.667Z,45.30
2017-06-05T19:04:40.202Z,45.70
2017-06-05T19:07:08.077Z,45.80
2017-06-05T19:09:36.514Z,46.60
2017-06-05T19:12:04.070Z,46.60
2017-06-05T19:14:31.626Z,46.80
2017-06-05T19:16:59.222Z,46.90
2017-06-05T19:19:26.809Z,47.20
2017-06-05T19:21:54.364Z,47.30
2017-06-05T19:24:22.086Z,47.60
2017-06-05T19:26:50.005Z,47.70
2017-06-05T19:29:17.774Z,47.90
2017-06-05T19:31:46.112Z,48.40
2017-06-05T19:34:14.118Z,48.30
2017-06-05T19:36:41.666Z,48.70
2017-06-05T19:39:09.206Z,48.90
2017-06-05T19:41:42.626Z,49.10
2017-06-05T19:44:10.165Z,49.40
2017-06-05T19:46:37.710Z,49.60
2017-06-05T19:49:05.299Z,49.80
2017-06-05T19:51:32.901Z,50.00
2017-06-05T19:54:01.223Z,50.80
2017-06-05T19:56:28.762Z,50.40
2017-06-05T19:58:56.786Z,50.50
2017-06-05T20:01:24.332Z,50.60
2017-06-05T20:03:51.869Z,50.70
2017-06-05T20:06:19.961Z,51.00
2017-06-05T20:08:47.501Z,51.20
2017-06-05T20:11:15.046Z,51.40
2017-06-05T20:13:43.064Z,51.60
2017-06-05T20:16:10.609Z,51.90
2017-06-05T20:18:38.149Z,52.20
2017-06-05T20:21:05.733Z,52.40
2017-06-05T20:23:33.272Z,52.30
2017-06-05T20:26:00.877Z,52.20
2017-06-05T20:28:28.410Z,52.30
2017-06-05T20:30:55.949Z,52.40
2017-06-05T20:33:23.682Z,52.40
2017-06-05T20:35:51.998Z,52.80
2017-06-05T20:38:19.997Z,52.70
2017-06-05T20:40:47.611Z,52.90
2017-06-05T20:43:17.243Z,53.30
2017-06-05T20:45:48.421Z,53.20
2017-06-05T20:48:15.957Z,53.50
2017-06-05T20:50:43.593Z,53.60
2017-06-05T20:53:11.127Z,54.20
2017-06-05T20:55:39.590Z,54.10
2017-06-05T20:58:07.125Z,54.10
2017-06-05T21:00:34.680Z,54.10
2017-06-05T21:03:02.308Z,54.60
2017-06-05T21:05:29.855Z,54.40
2017-06-05T21:07:58.693Z,54.00
2017-06-05T21:10:26.229Z,53.80
2017-06-05T21:12:53.769Z,53.70
2017-06-05T21:15:22.264Z,53.80
2017-06-05T21:17:52.270Z,53.70
2017-06-05T21:20:19.810Z,53.70
2017-06-05T21:22:47.344Z,53.70
2017-06-05T21:25:15.209Z,53.80
2017-06-05T21:27:42.749Z,53.70
2017-06-05T21:30:10.315Z,53.70
2017-06-05T21:32:37.941Z,53.90
2017-06-05T21:35:05.485Z,54.10
2017-06-05T21:37:33.213Z,53.90
2017-06-05T21:40:00.753Z,54.10
2017-06-05T21:42:28.517Z,54.30
2017-06-05T21:44:56.105Z,54.30
2017-06-05T21:47:23.646Z,54.40
2017-06-05T21:49:51.190Z,54.50
2017-06-05T21:52:19.241Z,54.60
2017-06-05T21:54:47.547Z,55.10
2017-06-05T21:57:15.081Z,54.90
2017-06-05T21:59:43.533Z,55.30
2017-06-05T22:02:11.073Z,55.20
2017-06-05T22:04:38.609Z,55.40
2017-06-05T22:07:06.605Z,55.50
2017-06-05T22:09:34.180Z,55.60
2017-06-05T22:12:01.753Z,55.80
2017-06-05T22:14:29.297Z,55.90
2017-06-05T22:16:56.877Z,56.00
2017-06-05T22:19:25.181Z,56.30
2017-06-05T22:21:53.141Z,56.20
2017-06-05T22:24:21.447Z,56.50
2017-06-05T22:26:48.986Z,56.40
2017-06-05T22:29:16.609Z,56.50
2017-06-05T22:31:44.140Z,56.60
2017-06-05T22:34:11.733Z,56.90
2017-06-05T22:36:39.274Z,57.00
2017-06-05T22:39:06.819Z,57.10
2017-06-05T22:41:34.678Z,57.30
2017-06-05T22:44:02.213Z,57.40
2017-06-05T22:46:29.791Z,57.50
2017-06-05T22:48:57.334Z,57.70
2017-06-05T22:51:25.182Z,57.80
2017-06-05T22:53:53.493Z,58.10
2017-06-05T22:56:21.034Z,58.10
2017-06-05T22:58:49.776Z,58.40
2017-06-05T23:01:17.325Z,58.40
2017-06-05T23:03:44.873Z,58.60
2017-06-05T23:06:12.594Z,58.80
2017-06-05T23:08:40.149Z,59.10
2017-06-05T23:11:08.502Z,59.40
2017-06-05T23:13:36.397Z,59.30
2017-06-05T23:16:03.926Z,59.40
2017-06-05T23:18:31.456Z,59.50
2017-06-05T23:20:59.129Z,59.60
2017-06-05T23:23:26.695Z,59.80
2017-06-05T23:25:58.361Z,60.00
2017-06-05T23:28:25.903Z,60.10
2017-06-05T23:30:53.441Z,60.30
2017-06-05T23:33:21.048Z,60.50
2017-06-05T23:35:48.637Z,60.80
2017-06-05T23:38:16.949Z,61.10
2017-06-05T23:40:48.916Z,61.00
2017-06-05T23:43:16.453Z,61.20
2017-06-05T23:45:46.274Z,61.50
2017-06-05T23:48:13.818Z,62.10
2017-06-05T23:50:42.125Z,61.80
2017-06-05T23:53:10.118Z,61.70
2017-06-05T23:55:37.655Z,61.90
2017-06-05T23:58:05.196Z,62.10
